This is the latest recevied weather packets stored in our database for station/object MM0ZFG-5. If no packets are shown the sender has not sent any weather packets the latest 10 day(s).
| Time | Temp. | Humidity | Pressure | Rain* | Wind** | Luminosity | Snow |
|---|---|---|---|---|---|---|---|
| 1777469763 | 18.33° C | 50% | 1025.9 hPa | 0 mm | - | - | - |
| 1777465084 | 14.44° C | 65% | 1026.8 hPa | 0 mm | - | - | - |
| 1777464004 | 13.89° C | 65% | 1026.9 hPa | 0 mm | - | - | - |
| 1777463645 | 13.89° C | 67% | 1026.9 hPa | 0 mm | - | - | - |
| 1777462023 | 12.78° C | 69% | 1027.2 hPa | 0 mm | - | - | - |
| 1777456443 | 10° C | 80% | 1027.9 hPa | 0 mm | - | - | - |
| 1777453744 | 8.33° C | 81% | 1028.2 hPa | 0 mm | - | - | - |
| 1777452325 | 8.33° C | 81% | 1028.3 hPa | 0 mm | - | - | - |
| 1777450704 | 7.78° C | 82% | 1028.2 hPa | 0 mm | - | - | - |
| 1777446004 | 7.22° C | 86% | 1028.4 hPa | 0 mm | - | - | - |
| 1777445643 | 7.22° C | 86% | 1028.3 hPa | 0 mm | - | - | - |
| 1777444564 | 6.67° C | 88% | 1028.3 hPa | 0 mm | - | - | - |
| 1777440446 | 5.56° C | 91% | 1028.1 hPa | 0 mm | - | - | - |
| 1777435204 | 5.56° C | 89% | 1028.1 hPa | 0 mm | - | - | - |
| 1777431625 | 5.56° C | 86% | 1028.4 hPa | 0 mm | - | - | - |
| 1777430164 | 5.56° C | 87% | 1028.1 hPa | 0 mm | - | - | - |
| 1777429084 | 5.56° C | 85% | 1028.1 hPa | 0 mm | - | - | - |
| 1777428003 | 6.11° C | 85% | 1028.1 hPa | 0 mm | - | - | - |
| 1777423503 | 6.67° C | 83% | 1028.2 hPa | 0 mm | - | - | - |
| 1777422963 | 6.67° C | 82% | 1028.1 hPa | 0 mm | - | - | - |
| 1777420804 | 7.22° C | 83% | 1028.3 hPa | 0 mm | - | - | - |
| 1777420445 | 7.22° C | 82% | 1028.3 hPa | 0 mm | - | - | - |
| 1777417204 | 7.78° C | 81% | 1028.2 hPa | 0 mm | - | - | - |
| 1777416845 | 7.78° C | 81% | 1028.1 hPa | 0 mm | - | - | - |
| 1777414684 | 8.33° C | 79% | 1028 hPa | 0 mm | - | - | - |
* Rain latest hour (hover to see other rain measurements)
** Current wind speed in m/s (hover to see current wind gust speed)